createdAt,value
2019-03-15T00:00:12.085Z,3.90
2019-03-15T00:01:12.067Z,3.50
2019-03-15T00:02:12.039Z,3.80
2019-03-15T00:03:12.075Z,3.40
2019-03-15T00:04:12.013Z,3.00
2019-03-15T00:05:12.034Z,3.40
2019-03-15T00:06:11.999Z,3.00
2019-03-15T00:07:11.982Z,3.30
2019-03-15T00:08:11.982Z,2.90
2019-03-15T00:09:11.983Z,3.50
2019-03-15T00:10:11.976Z,3.20
2019-03-15T00:11:11.937Z,3.60
2019-03-15T00:12:11.969Z,3.10
2019-03-15T00:13:12.425Z,3.50
2019-03-15T00:14:11.916Z,3.50
2019-03-15T00:15:11.898Z,4.00
2019-03-15T00:16:11.892Z,4.00
2019-03-15T00:17:11.921Z,3.60
2019-03-15T00:18:11.861Z,3.50
2019-03-15T00:19:12.684Z,3.50
2019-03-15T00:20:11.892Z,3.40
2019-03-15T00:21:11.858Z,4.30
2019-03-15T00:22:11.844Z,3.40
2019-03-15T00:23:11.844Z,3.40
2019-03-15T00:24:11.802Z,3.80
2019-03-15T00:25:11.788Z,2.90
2019-03-15T00:26:11.810Z,3.60
2019-03-15T00:27:11.764Z,3.80
2019-03-15T00:28:11.765Z,4.10
2019-03-15T00:29:11.801Z,3.50
2019-03-15T00:30:11.731Z,3.30
2019-03-15T00:31:11.718Z,3.90
2019-03-15T00:32:11.779Z,3.80
2019-03-15T00:33:11.712Z,3.60
2019-03-15T00:34:11.691Z,3.50
2019-03-15T00:35:11.838Z,3.30
2019-03-15T00:36:11.661Z,3.80
2019-03-15T00:37:11.650Z,3.60
2019-03-15T00:38:11.679Z,2.90
2019-03-15T00:39:11.635Z,4.00
2019-03-15T00:40:11.667Z,3.30
2019-03-15T00:41:11.633Z,3.80
2019-03-15T00:42:11.598Z,3.50
2019-03-15T00:43:11.706Z,2.90
2019-03-15T00:44:11.571Z,3.20
2019-03-15T00:45:11.583Z,3.90
2019-03-15T00:46:11.593Z,3.10
2019-03-15T00:47:11.549Z,4.50
2019-03-15T00:48:11.569Z,3.70
2019-03-15T00:49:11.525Z,3.20
2019-03-15T00:50:11.506Z,3.70
2019-03-15T00:51:11.514Z,3.10
2019-03-15T00:52:11.531Z,3.50
2019-03-15T00:53:11.484Z,3.80
2019-03-15T00:54:11.493Z,3.40
2019-03-15T00:55:11.464Z,3.30
2019-03-15T00:56:11.761Z,3.80
2019-03-15T00:57:11.490Z,2.90
2019-03-15T00:58:11.419Z,3.40
2019-03-15T00:59:11.418Z,3.70
2019-03-15T01:00:11.424Z,3.50
2019-03-15T01:01:11.409Z,2.70
2019-03-15T01:02:11.491Z,3.20
2019-03-15T01:03:11.369Z,3.50
2019-03-15T01:04:11.399Z,3.60
2019-03-15T01:05:11.371Z,3.60
2019-03-15T01:06:11.347Z,3.20
2019-03-15T01:07:11.373Z,3.50
2019-03-15T01:08:11.542Z,3.30
2019-03-15T01:09:11.322Z,3.60
2019-03-15T01:10:11.295Z,3.30
2019-03-15T01:11:11.316Z,3.70
2019-03-15T01:12:11.270Z,3.40
2019-03-15T01:13:11.275Z,3.10
2019-03-15T01:14:11.263Z,3.90
2019-03-15T01:15:11.237Z,3.00
2019-03-15T01:16:11.335Z,3.50
2019-03-15T01:17:11.211Z,3.40
2019-03-15T01:18:11.208Z,2.70
2019-03-15T01:19:11.205Z,3.80
2019-03-15T01:20:11.189Z,3.30
2019-03-15T01:21:11.211Z,3.10
2019-03-15T01:22:11.159Z,3.50
2019-03-15T01:23:11.143Z,3.00
2019-03-15T01:24:11.160Z,3.30
2019-03-15T01:25:11.217Z,3.20
2019-03-15T01:26:11.139Z,3.60
2019-03-15T01:27:11.098Z,2.70
2019-03-15T01:28:11.092Z,4.10
2019-03-15T01:29:11.178Z,2.90
2019-03-15T01:30:11.097Z,2.80
2019-03-15T01:31:11.060Z,3.00
2019-03-15T01:32:11.147Z,3.10
2019-03-15T01:33:11.071Z,2.80
2019-03-15T01:34:11.028Z,3.50
2019-03-15T01:35:11.016Z,3.50
2019-03-15T01:36:11.116Z,2.90
2019-03-15T01:37:11.060Z,3.20
2019-03-15T01:38:10.983Z,3.60
2019-03-15T01:39:10.977Z,3.60
2019-03-15T01:40:11.026Z,2.70
2019-03-15T01:41:10.949Z,3.00
2019-03-15T01:42:10.976Z,2.70
2019-03-15T01:43:10.929Z,2.90
2019-03-15T01:44:10.929Z,3.10
2019-03-15T01:45:10.960Z,3.00
2019-03-15T01:46:10.898Z,3.30
2019-03-15T01:47:10.929Z,3.10
2019-03-15T01:48:10.913Z,3.50
2019-03-15T01:49:10.872Z,3.00
2019-03-15T01:50:10.892Z,3.30
2019-03-15T01:51:10.905Z,3.00
2019-03-15T01:52:10.837Z,2.90
2019-03-15T01:53:10.812Z,4.10
2019-03-15T01:54:10.841Z,3.00
2019-03-15T01:55:10.798Z,3.50
2019-03-15T01:56:10.924Z,3.70
2019-03-15T01:57:10.781Z,3.20
2019-03-15T01:58:10.771Z,3.70
2019-03-15T01:59:10.826Z,2.90
2019-03-15T02:00:10.749Z,2.70
2019-03-15T02:01:10.792Z,2.50
2019-03-15T02:02:10.717Z,3.30
2019-03-15T02:03:10.706Z,3.10
2019-03-15T02:04:10.734Z,2.80
2019-03-15T02:05:10.765Z,3.20
2019-03-15T02:06:10.709Z,2.50
2019-03-15T02:07:10.725Z,2.40
2019-03-15T02:08:10.670Z,2.90
2019-03-15T02:09:10.636Z,3.70
2019-03-15T02:10:11.083Z,2.90
2019-03-15T02:11:10.624Z,2.90
2019-03-15T02:12:10.610Z,2.20
2019-03-15T02:13:10.621Z,2.90
2019-03-15T02:14:10.677Z,2.30
2019-03-15T02:15:10.610Z,2.40
2019-03-15T02:16:10.602Z,3.10
2019-03-15T02:17:10.616Z,3.00
2019-03-15T02:18:10.545Z,1.90
2019-03-15T02:19:10.629Z,3.30
2019-03-15T02:20:10.556Z,3.50
2019-03-15T02:21:10.514Z,2.40
2019-03-15T02:22:10.526Z,2.70
2019-03-15T02:23:10.487Z,2.20
2019-03-15T02:24:10.485Z,3.00
2019-03-15T02:25:10.497Z,2.30
2019-03-15T02:26:10.506Z,2.40
2019-03-15T02:27:10.466Z,2.60
2019-03-15T02:28:10.479Z,3.10
2019-03-15T02:29:10.421Z,2.90
2019-03-15T02:30:10.435Z,2.60
2019-03-15T02:31:10.504Z,2.70
2019-03-15T02:32:10.409Z,2.70
2019-03-15T02:33:10.399Z,2.90
2019-03-15T02:34:10.405Z,1.90
2019-03-15T02:35:10.367Z,2.70
2019-03-15T02:36:10.389Z,2.70
2019-03-15T02:37:10.378Z,2.20
2019-03-15T02:38:10.342Z,2.50
2019-03-15T02:39:10.380Z,3.00
2019-03-15T02:40:10.377Z,2.50
2019-03-15T02:41:10.296Z,2.90
2019-03-15T02:42:10.422Z,2.20
2019-03-15T02:43:10.295Z,2.80
2019-03-15T02:44:10.306Z,2.60
2019-03-15T02:45:10.287Z,2.50
2019-03-15T02:46:10.270Z,2.60
2019-03-15T02:47:10.219Z,2.60
2019-03-15T02:48:10.226Z,2.20
2019-03-15T02:49:10.282Z,2.30
2019-03-15T02:50:10.210Z,2.20
2019-03-15T02:51:10.190Z,2.30
2019-03-15T02:52:10.174Z,2.40
2019-03-15T02:53:10.187Z,2.60
2019-03-15T02:54:10.150Z,2.60
2019-03-15T02:55:10.154Z,2.60
2019-03-15T02:56:10.155Z,2.70
2019-03-15T02:57:10.122Z,2.80
2019-03-15T02:58:10.144Z,2.50
2019-03-15T02:59:10.112Z,2.30
2019-03-15T03:00:10.093Z,2.20
2019-03-15T03:01:10.129Z,2.30
2019-03-15T03:02:10.115Z,2.60
2019-03-15T03:03:10.074Z,2.60
2019-03-15T03:04:10.054Z,2.50
2019-03-15T03:05:10.061Z,2.80
2019-03-15T03:06:10.035Z,2.60
2019-03-15T03:07:10.030Z,2.30
2019-03-15T03:08:10.017Z,2.70
2019-03-15T03:09:10.038Z,2.40
2019-03-15T03:10:10.018Z,2.40
2019-03-15T03:11:10.001Z,2.20
2019-03-15T03:12:09.955Z,3.80
2019-03-15T03:13:10.749Z,2.60
2019-03-15T03:14:09.963Z,2.20
2019-03-15T03:15:09.923Z,2.40
2019-03-15T03:16:09.948Z,2.80
2019-03-15T03:17:09.897Z,2.70
2019-03-15T03:18:09.986Z,3.00
2019-03-15T03:19:09.891Z,2.20
2019-03-15T03:20:09.869Z,2.50
2019-03-15T03:21:09.850Z,2.50
2019-03-15T03:22:09.840Z,2.30
2019-03-15T03:23:09.880Z,2.30
2019-03-15T03:24:09.839Z,2.50
2019-03-15T03:25:09.876Z,2.10
2019-03-15T03:26:09.795Z,2.70
2019-03-15T03:27:09.827Z,2.50
2019-03-15T03:28:09.790Z,2.20
2019-03-15T03:29:09.784Z,2.50
2019-03-15T03:30:09.857Z,2.70
2019-03-15T03:31:09.744Z,2.30
2019-03-15T03:32:09.754Z,3.10
2019-03-15T03:33:12.338Z,2.30
2019-03-15T03:34:11.713Z,2.40
2019-03-15T03:35:10.704Z,2.50
2019-03-15T03:36:09.764Z,1.90
2019-03-15T03:37:09.738Z,2.70
2019-03-15T03:38:09.701Z,2.80
2019-03-15T03:39:09.661Z,2.80
2019-03-15T03:40:09.765Z,2.90
2019-03-15T03:41:09.634Z,2.70
2019-03-15T03:42:09.626Z,2.80
2019-03-15T03:43:09.642Z,2.90
2019-03-15T03:44:09.602Z,2.60
2019-03-15T03:45:09.622Z,2.70
2019-03-15T03:46:09.595Z,2.10
2019-03-15T03:47:09.669Z,2.70
2019-03-15T03:48:09.585Z,3.00
2019-03-15T03:49:09.563Z,3.00
2019-03-15T03:50:09.605Z,2.70
2019-03-15T03:51:09.536Z,2.80
2019-03-15T03:52:09.545Z,2.70
2019-03-15T03:53:09.605Z,3.10
2019-03-15T03:54:09.493Z,2.60
2019-03-15T03:55:09.485Z,2.40
2019-03-15T03:56:09.518Z,2.50
2019-03-15T03:57:10.490Z,2.70
2019-03-15T03:58:09.470Z,2.20
2019-03-15T03:59:09.447Z,2.80
2019-03-15T04:00:09.477Z,2.70
2019-03-15T04:01:09.437Z,2.70
2019-03-15T04:02:09.504Z,2.40
2019-03-15T04:03:09.397Z,2.90
2019-03-15T04:04:09.442Z,2.30
2019-03-15T04:05:09.373Z,2.50
2019-03-15T04:06:09.463Z,3.00
2019-03-15T04:07:09.365Z,2.50
2019-03-15T04:08:09.347Z,3.00
2019-03-15T04:09:09.381Z,3.00
2019-03-15T04:10:09.333Z,2.50
2019-03-15T04:11:09.308Z,2.60
2019-03-15T04:12:09.317Z,2.60
2019-03-15T04:13:09.282Z,2.70
2019-03-15T04:14:09.335Z,2.80
2019-03-15T04:15:09.301Z,2.70
2019-03-15T04:16:09.266Z,2.80
2019-03-15T04:17:09.244Z,3.30
2019-03-15T04:18:09.226Z,3.10
2019-03-15T04:19:09.217Z,3.40
2019-03-15T04:20:09.224Z,3.00
2019-03-15T04:21:09.320Z,2.60
2019-03-15T04:22:09.186Z,2.80
2019-03-15T04:23:09.178Z,2.90
2019-03-15T04:24:09.196Z,2.90
2019-03-15T04:25:09.162Z,2.70
2019-03-15T04:26:09.162Z,2.90
2019-03-15T04:27:09.142Z,2.30
2019-03-15T04:28:09.160Z,3.00
2019-03-15T04:29:09.108Z,2.40
2019-03-15T04:30:09.217Z,2.60
2019-03-15T04:31:09.110Z,2.70
2019-03-15T04:32:09.088Z,3.60
2019-03-15T04:33:09.102Z,3.40
2019-03-15T04:34:09.053Z,2.90
2019-03-15T04:35:09.042Z,2.60
2019-03-15T04:36:09.071Z,3.00
2019-03-15T04:37:09.486Z,2.80
2019-03-15T04:38:09.012Z,3.00
2019-03-15T04:39:09.003Z,2.60
2019-03-15T04:40:09.129Z,3.10
2019-03-15T04:41:08.974Z,2.70
2019-03-15T04:42:08.985Z,2.70
2019-03-15T04:43:08.964Z,2.70
2019-03-15T04:44:08.951Z,3.20
2019-03-15T04:45:08.933Z,2.40
2019-03-15T04:46:08.925Z,2.80
2019-03-15T04:47:08.984Z,3.10
2019-03-15T04:48:08.909Z,2.70
2019-03-15T04:49:08.963Z,3.20
2019-03-15T04:50:08.876Z,2.80
2019-03-15T04:51:08.865Z,3.20
2019-03-15T04:52:08.913Z,2.60
2019-03-15T04:53:08.847Z,3.20
2019-03-15T04:54:08.832Z,2.70
2019-03-15T04:55:09.001Z,2.80
2019-03-15T04:56:08.809Z,2.90
2019-03-15T04:57:08.801Z,3.20
2019-03-15T04:58:08.847Z,3.00
2019-03-15T04:59:08.784Z,2.50
2019-03-15T05:00:08.778Z,2.90
2019-03-15T05:01:08.794Z,2.40
2019-03-15T05:02:08.787Z,3.40
2019-03-15T05:03:08.754Z,2.90
2019-03-15T05:04:08.729Z,2.80
2019-03-15T05:05:08.723Z,3.10
2019-03-15T05:06:08.775Z,2.80
2019-03-15T05:07:08.689Z,2.80
2019-03-15T05:08:08.757Z,3.20
2019-03-15T05:09:08.672Z,2.90
2019-03-15T05:10:08.708Z,3.20
2019-03-15T05:11:08.666Z,3.40
2019-03-15T05:12:08.645Z,2.90
2019-03-15T05:13:08.618Z,3.20
2019-03-15T05:14:08.617Z,2.70
2019-03-15T05:15:08.637Z,4.20
2019-03-15T05:16:08.588Z,3.30
2019-03-15T05:17:08.601Z,2.50
2019-03-15T05:18:08.564Z,3.40
2019-03-15T05:19:08.555Z,2.90
2019-03-15T05:20:08.565Z,2.80
2019-03-15T05:21:08.531Z,3.40
2019-03-15T05:22:08.522Z,3.50
2019-03-15T05:23:08.526Z,3.10
2019-03-15T05:24:08.506Z,2.90
2019-03-15T05:25:08.500Z,3.10
2019-03-15T05:26:08.514Z,3.50
2019-03-15T05:27:08.470Z,3.80
2019-03-15T05:28:08.477Z,3.00
2019-03-15T05:29:08.466Z,3.00
2019-03-15T05:30:08.445Z,3.50
2019-03-15T05:31:08.423Z,3.00
2019-03-15T05:32:08.413Z,3.70
2019-03-15T05:33:08.451Z,3.60
2019-03-15T05:34:08.389Z,3.30
2019-03-15T05:35:08.379Z,2.90
2019-03-15T05:36:08.382Z,3.10
2019-03-15T05:37:08.380Z,3.60
2019-03-15T05:38:08.432Z,4.70
2019-03-15T05:39:08.366Z,4.50
2019-03-15T05:40:08.326Z,4.40
2019-03-15T05:41:08.312Z,3.90
2019-03-15T05:42:08.303Z,3.70
2019-03-15T05:43:08.341Z,3.00
2019-03-15T05:44:08.283Z,3.50
2019-03-15T05:45:08.315Z,3.60
2019-03-15T05:46:08.261Z,3.30
2019-03-15T05:47:08.246Z,3.70
2019-03-15T05:48:08.237Z,3.40
2019-03-15T05:49:08.238Z,3.60
2019-03-15T05:50:08.215Z,4.20
2019-03-15T05:51:08.226Z,3.90
2019-03-15T05:52:08.192Z,4.70
2019-03-15T05:53:08.181Z,4.00
2019-03-15T05:54:08.186Z,4.20
2019-03-15T05:55:08.174Z,4.70
2019-03-15T05:56:08.150Z,6.60
2019-03-15T05:57:08.192Z,6.00
2019-03-15T05:58:08.125Z,5.20
2019-03-15T05:59:08.113Z,7.20
2019-03-15T06:00:08.129Z,5.50
2019-03-15T06:01:08.096Z,5.40
2019-03-15T06:02:08.083Z,4.60
2019-03-15T06:03:08.117Z,6.40
2019-03-15T06:04:08.058Z,4.90
2019-03-15T06:05:08.943Z,5.30
2019-03-15T06:06:08.048Z,5.00
2019-03-15T06:07:08.025Z,4.80
2019-03-15T06:08:08.017Z,4.90
2019-03-15T06:09:08.052Z,4.70
2019-03-15T06:10:07.994Z,4.40
2019-03-15T06:11:07.993Z,4.40
2019-03-15T06:12:07.986Z,3.70
2019-03-15T06:13:07.963Z,4.80
2019-03-15T06:14:07.948Z,3.70
2019-03-15T06:15:08.021Z,4.70
2019-03-15T06:16:07.934Z,4.20
2019-03-15T06:17:07.916Z,4.00
2019-03-15T06:18:07.920Z,3.90
2019-03-15T06:19:07.894Z,4.40
2019-03-15T06:20:07.919Z,4.90
2019-03-15T06:21:07.897Z,4.10
2019-03-15T06:22:07.868Z,4.40
2019-03-15T06:23:07.854Z,4.50
2019-03-15T06:24:07.845Z,3.50
2019-03-15T06:25:07.832Z,4.40
2019-03-15T06:26:07.831Z,4.40
2019-03-15T06:27:07.854Z,4.60
2019-03-15T06:28:07.806Z,4.30
2019-03-15T06:29:07.790Z,4.40
2019-03-15T06:30:07.774Z,4.20
2019-03-15T06:31:07.778Z,4.20
2019-03-15T06:32:07.764Z,4.50
2019-03-15T06:33:07.765Z,4.40
2019-03-15T06:34:07.729Z,3.80
2019-03-15T06:35:07.732Z,4.10
2019-03-15T06:36:07.714Z,3.60
2019-03-15T06:37:07.698Z,4.30
2019-03-15T06:38:07.687Z,4.40
2019-03-15T06:39:08.426Z,4.40
2019-03-15T06:40:07.663Z,4.90
2019-03-15T06:41:07.673Z,5.10
2019-03-15T06:42:07.647Z,4.90
2019-03-15T06:43:07.632Z,5.40
2019-03-15T06:44:07.619Z,6.40
2019-03-15T06:45:07.628Z,5.30
2019-03-15T06:46:07.610Z,4.70
2019-03-15T06:47:07.590Z,4.60
2019-03-15T06:48:07.580Z,4.40
2019-03-15T06:49:07.565Z,4.70
2019-03-15T06:50:07.568Z,4.10
2019-03-15T06:51:09.270Z,4.30
2019-03-15T06:52:07.547Z,4.50
2019-03-15T06:53:07.520Z,4.50
2019-03-15T06:54:11.751Z,5.00
2019-03-15T06:55:07.518Z,5.00
2019-03-15T06:56:07.491Z,4.00
2019-03-15T06:57:07.518Z,4.80
2019-03-15T06:58:07.464Z,4.20
2019-03-15T06:59:07.457Z,4.90
2019-03-15T07:00:07.444Z,5.10
2019-03-15T07:01:07.451Z,5.40
2019-03-15T07:02:07.420Z,5.50
2019-03-15T07:03:07.445Z,5.20
2019-03-15T07:04:07.424Z,4.50
2019-03-15T07:05:07.392Z,5.30
2019-03-15T07:06:07.378Z,5.40
2019-03-15T07:07:07.369Z,4.60
2019-03-15T07:08:07.360Z,4.60
2019-03-15T07:09:07.564Z,4.60
2019-03-15T07:10:07.344Z,4.80
2019-03-15T07:11:07.344Z,4.60
2019-03-15T07:12:09.745Z,5.00
2019-03-15T07:13:07.304Z,4.50
2019-03-15T07:14:07.294Z,5.00
2019-03-15T07:15:07.311Z,5.60
2019-03-15T07:16:07.279Z,4.20
2019-03-15T07:17:07.273Z,5.40
2019-03-15T07:18:07.995Z,5.40
2019-03-15T07:19:07.238Z,5.00
2019-03-15T07:20:07.230Z,5.20
2019-03-15T07:21:07.252Z,5.10
2019-03-15T07:22:07.213Z,5.30
2019-03-15T07:23:07.193Z,5.30
2019-03-15T07:24:07.180Z,6.00
2019-03-15T07:25:07.171Z,6.00
2019-03-15T07:26:07.161Z,5.90
2019-03-15T07:27:12.927Z,5.50
2019-03-15T07:28:08.138Z,6.60
2019-03-15T07:29:07.126Z,6.40
2019-03-15T07:30:07.118Z,5.00
2019-03-15T07:31:07.108Z,5.10
2019-03-15T07:32:07.117Z,4.90
2019-03-15T07:33:07.081Z,5.30
2019-03-15T07:34:07.094Z,6.10
2019-03-15T07:35:07.460Z,5.10
2019-03-15T07:36:07.050Z,5.30
2019-03-15T07:37:07.038Z,5.20
2019-03-15T07:38:07.060Z,5.60
2019-03-15T07:39:07.013Z,4.40
2019-03-15T07:40:07.008Z,5.50
2019-03-15T07:41:06.999Z,6.00
2019-03-15T07:42:07.142Z,6.10
2019-03-15T07:43:07.017Z,4.90
2019-03-15T07:44:06.973Z,4.80
2019-03-15T07:45:06.955Z,5.10
2019-03-15T07:46:06.942Z,4.30
2019-03-15T07:47:06.927Z,5.10
2019-03-15T07:48:06.918Z,5.30
2019-03-15T07:49:06.966Z,5.90
2019-03-15T07:50:06.892Z,5.50
2019-03-15T07:51:06.882Z,5.30
2019-03-15T07:52:06.871Z,5.50
2019-03-15T07:53:06.875Z,5.80
2019-03-15T07:54:06.851Z,8.20
2019-03-15T07:55:06.904Z,14.00
2019-03-15T07:56:06.827Z,20.30
2019-03-15T07:57:06.822Z,16.20
2019-03-15T07:58:07.486Z,21.70
2019-03-15T07:59:06.796Z,21.40
2019-03-15T08:00:06.787Z,15.40
2019-03-15T08:01:06.849Z,15.60
2019-03-15T08:02:06.760Z,11.20
2019-03-15T08:03:06.752Z,8.80
2019-03-15T08:04:16.784Z,7.00
2019-03-15T08:05:07.726Z,6.00
2019-03-15T08:06:06.729Z,5.70
2019-03-15T08:07:06.719Z,5.60
2019-03-15T08:08:06.747Z,5.80
2019-03-15T08:09:06.687Z,5.90
2019-03-15T08:10:06.706Z,5.60
2019-03-15T08:11:06.664Z,5.40
2019-03-15T08:12:06.666Z,5.30
2019-03-15T08:13:06.639Z,5.50
2019-03-15T08:14:06.674Z,5.10
2019-03-15T08:15:06.625Z,4.80
2019-03-15T08:16:06.634Z,6.10
2019-03-15T08:17:06.597Z,5.80
2019-03-15T08:18:06.611Z,6.20
2019-03-15T08:19:06.584Z,4.40
2019-03-15T08:20:06.563Z,5.20
2019-03-15T08:21:06.614Z,3.80
2019-03-15T08:22:06.543Z,4.50
2019-03-15T08:23:08.633Z,5.30
2019-03-15T08:24:06.534Z,5.00
2019-03-15T08:25:06.507Z,4.90
2019-03-15T08:26:06.519Z,5.40
2019-03-15T08:27:06.488Z,5.30
2019-03-15T08:28:06.536Z,4.90
2019-03-15T08:29:09.473Z,5.40
2019-03-15T08:30:06.452Z,5.40
2019-03-15T08:31:06.443Z,6.60
2019-03-15T08:32:06.447Z,5.10
2019-03-15T08:33:10.458Z,5.10
2019-03-15T08:34:06.431Z,6.50
2019-03-15T08:35:06.400Z,5.10
2019-03-15T08:36:06.388Z,5.30
2019-03-15T08:37:06.374Z,4.30
2019-03-15T08:38:06.380Z,4.80
2019-03-15T08:39:06.355Z,4.70
2019-03-15T08:40:06.342Z,5.30
2019-03-15T08:41:06.346Z,4.30
2019-03-15T08:42:06.319Z,4.90
2019-03-15T08:43:06.310Z,5.00
2019-03-15T08:44:06.316Z,4.50
2019-03-15T08:45:06.289Z,4.30
2019-03-15T08:46:06.277Z,4.50
2019-03-15T08:47:06.267Z,4.30
2019-03-15T08:48:06.293Z,5.10
2019-03-15T08:49:06.246Z,3.80
2019-03-15T08:50:06.253Z,4.60
2019-03-15T08:51:06.223Z,7.00
2019-03-15T08:52:06.210Z,5.00
2019-03-15T08:53:06.202Z,4.80
2019-03-15T08:54:06.215Z,4.00
2019-03-15T08:55:06.192Z,3.70
2019-03-15T08:56:06.170Z,4.60
2019-03-15T08:57:06.156Z,5.00
2019-03-15T08:58:13.910Z,4.80
2019-03-15T08:59:07.132Z,4.50
2019-03-15T09:00:06.147Z,4.60
2019-03-15T09:01:06.127Z,5.70
2019-03-15T09:02:06.102Z,5.30
2019-03-15T09:03:06.090Z,4.60
2019-03-15T09:04:06.079Z,4.70
2019-03-15T09:05:06.069Z,3.90
2019-03-15T09:06:06.105Z,4.00
2019-03-15T09:07:06.058Z,3.60
2019-03-15T09:08:06.066Z,3.40
2019-03-15T09:09:06.024Z,3.80
2019-03-15T09:10:06.012Z,4.50
2019-03-15T09:11:06.002Z,4.80
2019-03-15T09:12:06.035Z,4.70
2019-03-15T09:13:06.001Z,4.80
2019-03-15T09:14:05.986Z,3.90
2019-03-15T09:15:05.958Z,4.40
2019-03-15T09:16:05.949Z,4.90
2019-03-15T09:17:05.935Z,4.50
2019-03-15T09:18:05.972Z,5.20
2019-03-15T09:19:05.917Z,4.80
2019-03-15T09:20:05.919Z,4.40
2019-03-15T09:21:05.893Z,4.60
2019-03-15T09:22:05.885Z,4.70
2019-03-15T09:23:05.870Z,3.90
2019-03-15T09:24:05.885Z,3.90
2019-03-15T09:25:18.552Z,4.20
2019-03-15T09:26:10.196Z,3.20
2019-03-15T09:27:05.827Z,4.60
2019-03-15T09:28:05.818Z,4.60
2019-03-15T09:29:05.818Z,5.20
2019-03-15T09:30:05.835Z,4.70
2019-03-15T09:31:07.522Z,4.70
2019-03-15T09:32:09.149Z,5.50
2019-03-15T09:33:05.773Z,5.30
2019-03-15T09:34:05.755Z,4.80
2019-03-15T09:35:05.743Z,4.50
2019-03-15T09:36:05.795Z,4.80
2019-03-15T09:37:05.719Z,5.10
2019-03-15T09:38:05.726Z,4.50
2019-03-15T09:39:05.695Z,5.00
2019-03-15T09:40:05.683Z,4.80
2019-03-15T09:41:05.672Z,5.10
2019-03-15T09:42:05.706Z,4.70
2019-03-15T09:43:05.674Z,4.70
2019-03-15T09:44:05.639Z,4.80
2019-03-15T09:45:05.628Z,5.20
2019-03-15T09:46:05.642Z,4.30
2019-03-15T09:47:05.608Z,4.80
2019-03-15T09:48:05.594Z,4.30
2019-03-15T09:49:05.624Z,4.50
2019-03-15T09:50:05.577Z,4.70
2019-03-15T09:51:05.565Z,4.50
2019-03-15T09:52:05.564Z,4.60
2019-03-15T09:53:06.107Z,5.00
2019-03-15T09:54:05.528Z,4.70
2019-03-15T09:55:05.553Z,4.60
2019-03-15T09:56:05.507Z,4.50
2019-03-15T09:57:05.500Z,5.90
2019-03-15T09:58:05.498Z,6.40
2019-03-15T09:59:05.475Z,5.40
2019-03-15T10:00:05.463Z,6.50
2019-03-15T10:01:05.755Z,10.60
2019-03-15T10:02:07.833Z,5.50
2019-03-15T10:03:05.433Z,4.40
2019-03-15T10:04:05.453Z,4.70
2019-03-15T10:05:10.679Z,4.70
2019-03-15T10:06:14.828Z,4.80
2019-03-15T10:07:06.406Z,4.80
2019-03-15T10:08:05.415Z,4.60
2019-03-15T10:09:05.364Z,3.50
2019-03-15T10:10:13.540Z,4.90
2019-03-15T10:11:06.342Z,4.60
2019-03-15T10:12:05.331Z,4.20
2019-03-15T10:13:06.462Z,4.80
2019-03-15T10:14:05.345Z,4.50
2019-03-15T10:15:07.769Z,4.60
2019-03-15T10:16:05.300Z,4.10
2019-03-15T10:17:05.275Z,4.80
2019-03-15T10:18:05.274Z,4.00
2019-03-15T10:19:05.252Z,4.70
2019-03-15T10:20:05.261Z,5.10
2019-03-15T10:21:05.240Z,4.70
2019-03-15T10:22:05.238Z,5.30
2019-03-15T10:23:06.450Z,5.00
2019-03-15T10:24:05.194Z,5.20
2019-03-15T10:25:05.190Z,4.90
2019-03-15T10:26:05.187Z,4.40
2019-03-15T10:27:05.166Z,4.40
2019-03-15T10:28:05.167Z,4.40
2019-03-15T10:29:14.709Z,5.50
2019-03-15T10:30:06.132Z,5.40
2019-03-15T10:31:05.122Z,6.00
2019-03-15T10:32:05.145Z,6.50
2019-03-15T10:33:05.111Z,6.70
2019-03-15T10:34:05.889Z,6.10
2019-03-15T10:35:05.228Z,6.60
2019-03-15T10:36:05.071Z,4.70
2019-03-15T10:37:06.280Z,5.20
2019-03-15T10:38:05.115Z,6.50
2019-03-15T10:39:05.029Z,5.50
2019-03-15T10:40:05.022Z,4.10
2019-03-15T10:41:05.009Z,6.20
2019-03-15T10:42:04.999Z,5.90
2019-03-15T10:43:04.995Z,6.20
2019-03-15T10:44:05.035Z,6.60
2019-03-15T10:45:04.983Z,6.20
2019-03-15T10:46:06.257Z,6.60
2019-03-15T10:47:04.945Z,6.60
2019-03-15T10:48:07.947Z,6.00
2019-03-15T10:49:04.920Z,6.10
2019-03-15T10:50:04.907Z,6.30
2019-03-15T10:51:04.950Z,7.20
2019-03-15T10:52:04.888Z,6.90
2019-03-15T10:53:04.879Z,6.20
2019-03-15T10:54:04.867Z,6.40
2019-03-15T10:55:04.860Z,6.90
2019-03-15T10:56:04.845Z,5.90
2019-03-15T10:57:04.846Z,6.70
2019-03-15T10:58:04.851Z,6.50
2019-03-15T10:59:04.816Z,4.70
2019-03-15T11:00:04.797Z,4.00
2019-03-15T11:01:04.797Z,5.90
2019-03-15T11:02:04.793Z,5.50
2019-03-15T11:03:04.769Z,4.80
2019-03-15T11:04:04.790Z,5.70
2019-03-15T11:05:04.754Z,6.20
2019-03-15T11:06:04.736Z,6.00
2019-03-15T11:07:04.723Z,6.10
2019-03-15T11:08:04.726Z,5.70
2019-03-15T11:09:04.714Z,5.90
2019-03-15T11:10:04.726Z,6.00
2019-03-15T11:11:04.682Z,5.70
2019-03-15T11:12:04.669Z,5.20
2019-03-15T11:13:04.673Z,5.40
2019-03-15T11:14:04.654Z,5.60
2019-03-15T11:15:04.665Z,5.30
2019-03-15T11:16:04.635Z,5.60
2019-03-15T11:17:04.614Z,6.00
2019-03-15T11:18:04.602Z,5.10
2019-03-15T11:19:04.602Z,5.90
2019-03-15T11:20:04.579Z,4.40
2019-03-15T11:21:04.626Z,5.60
2019-03-15T11:22:04.559Z,5.90
2019-03-15T11:23:04.547Z,5.60
2019-03-15T11:24:04.544Z,6.70
2019-03-15T11:25:04.531Z,5.50
2019-03-15T11:26:13.443Z,5.00
2019-03-15T11:27:05.545Z,5.10
2019-03-15T11:28:04.493Z,4.70
2019-03-15T11:29:04.480Z,5.80
2019-03-15T11:30:04.470Z,5.20
2019-03-15T11:31:04.463Z,5.60
2019-03-15T11:32:04.463Z,4.60
2019-03-15T11:33:04.490Z,4.90
2019-03-15T11:34:04.427Z,5.30
2019-03-15T11:35:04.418Z,4.20
2019-03-15T11:36:04.402Z,4.10
2019-03-15T11:37:04.394Z,4.60
2019-03-15T11:38:04.385Z,3.40
2019-03-15T11:39:04.423Z,4.10
2019-03-15T11:40:04.362Z,3.90
2019-03-15T11:41:04.349Z,3.60
2019-03-15T11:42:04.338Z,4.30
2019-03-15T11:43:04.344Z,3.30
2019-03-15T11:44:04.332Z,4.20
2019-03-15T11:45:04.351Z,3.90
2019-03-15T11:46:04.294Z,3.90
2019-03-15T11:47:04.294Z,4.40
2019-03-15T11:48:04.707Z,4.40
2019-03-15T11:49:04.289Z,4.20
2019-03-15T11:50:04.258Z,4.30
2019-03-15T11:51:04.321Z,3.80
2019-03-15T11:52:04.230Z,3.90
2019-03-15T11:53:04.219Z,4.20
2019-03-15T11:54:04.204Z,4.40
2019-03-15T11:55:04.208Z,3.90
2019-03-15T11:56:04.183Z,3.70
2019-03-15T11:57:04.237Z,3.90
2019-03-15T11:58:04.161Z,4.10
2019-03-15T11:59:04.155Z,4.20
2019-03-15T12:00:04.142Z,3.40
2019-03-15T12:01:04.140Z,3.40
2019-03-15T12:02:04.584Z,2.80
2019-03-15T12:03:04.145Z,3.20
2019-03-15T12:04:04.096Z,3.40
2019-03-15T12:05:04.084Z,3.60
2019-03-15T12:06:04.079Z,3.70
2019-03-15T12:07:04.082Z,3.80
2019-03-15T12:08:04.055Z,3.30
2019-03-15T12:09:04.041Z,3.30
2019-03-15T12:10:04.072Z,3.30
2019-03-15T12:11:04.035Z,3.30
2019-03-15T12:12:04.009Z,3.30
2019-03-15T12:13:04.016Z,3.50
2019-03-15T12:14:03.987Z,3.70
2019-03-15T12:15:03.976Z,3.50
2019-03-15T12:16:03.966Z,3.70
2019-03-15T12:17:03.999Z,3.80
2019-03-15T12:18:03.953Z,3.70
2019-03-15T12:19:03.951Z,3.10
2019-03-15T12:20:03.925Z,3.20
2019-03-15T12:21:03.933Z,4.00
2019-03-15T12:22:06.484Z,3.50
2019-03-15T12:23:03.888Z,4.00
2019-03-15T12:24:03.914Z,4.10
2019-03-15T12:25:03.871Z,3.90
2019-03-15T12:26:03.853Z,4.40
2019-03-15T12:27:03.859Z,3.60
2019-03-15T12:28:03.833Z,3.50
2019-03-15T12:29:03.823Z,4.20
2019-03-15T12:30:03.884Z,4.00
2019-03-15T12:31:03.800Z,4.00
2019-03-15T12:32:03.793Z,4.50
2019-03-15T12:33:03.781Z,3.70
2019-03-15T12:34:03.776Z,4.20
2019-03-15T12:35:03.766Z,4.00
2019-03-15T12:36:03.811Z,3.50
2019-03-15T12:37:03.732Z,4.40
2019-03-15T12:38:03.722Z,4.00
2019-03-15T12:39:03.715Z,5.10
2019-03-15T12:40:03.714Z,4.50
2019-03-15T12:41:03.703Z,5.00
2019-03-15T12:42:03.690Z,4.50
2019-03-15T12:43:03.733Z,5.10
2019-03-15T12:44:03.660Z,4.80
2019-03-15T12:45:03.647Z,5.30
2019-03-15T12:46:03.637Z,5.90
2019-03-15T12:47:05.995Z,4.20
2019-03-15T12:48:03.608Z,5.50
2019-03-15T12:49:03.668Z,5.80
2019-03-15T12:50:03.593Z,4.80
2019-03-15T12:51:03.580Z,5.50
2019-03-15T12:52:03.568Z,5.30
2019-03-15T12:53:03.563Z,4.80
2019-03-15T12:54:03.570Z,4.50
2019-03-15T12:55:03.537Z,4.50
2019-03-15T12:56:03.547Z,5.00
2019-03-15T12:57:03.515Z,4.70
2019-03-15T12:58:03.537Z,4.00
2019-03-15T12:59:03.493Z,4.30
2019-03-15T13:00:03.495Z,3.90
2019-03-15T13:01:03.484Z,3.90
2019-03-15T13:02:03.485Z,4.10
2019-03-15T13:03:03.456Z,3.90
2019-03-15T13:04:03.436Z,4.20
2019-03-15T13:05:03.422Z,3.90
2019-03-15T13:06:03.433Z,3.50
2019-03-15T13:07:03.404Z,3.70
2019-03-15T13:08:03.391Z,4.00
2019-03-15T13:09:04.663Z,4.10
2019-03-15T13:10:03.370Z,3.90
2019-03-15T13:11:03.395Z,3.90
2019-03-15T13:12:03.406Z,4.10
2019-03-15T13:13:03.338Z,3.90
2019-03-15T13:14:03.383Z,4.50
2019-03-15T13:15:03.322Z,4.30
2019-03-15T13:16:03.319Z,4.40
2019-03-15T13:17:03.337Z,4.90
2019-03-15T13:18:03.282Z,4.70